createdAt,value
2023-04-09T00:01:56.830Z,95356.59
2023-04-09T00:04:23.793Z,95352.13
2023-04-09T00:06:50.542Z,95353.16
2023-04-09T00:09:17.166Z,95361.84
2023-04-09T00:11:43.841Z,95359.59
2023-04-09T00:14:10.440Z,95354.78
2023-04-09T00:16:37.269Z,95360.22
2023-04-09T00:19:05.902Z,95355.16
2023-04-09T00:21:32.566Z,95350.25
2023-04-09T00:23:59.180Z,95348.44
2023-04-09T00:26:25.953Z,95343.22
2023-04-09T00:28:52.825Z,95343.41
2023-04-09T00:31:20.754Z,95347.66
2023-04-09T00:33:47.603Z,95344.03
2023-04-09T00:36:15.615Z,95338.38
2023-04-09T00:38:42.262Z,95338.38
2023-04-09T00:41:08.932Z,95340.00
2023-04-09T00:43:35.652Z,95334.91
2023-04-09T00:46:02.959Z,95343.13
2023-04-09T00:48:29.600Z,95353.97
2023-04-09T00:50:56.291Z,95343.66
2023-04-09T00:53:25.258Z,95338.28
2023-04-09T00:55:52.696Z,95335.81
2023-04-09T00:58:19.333Z,95344.75
2023-04-09T01:00:45.995Z,95341.94
2023-04-09T01:03:12.891Z,95340.94
2023-04-09T01:05:48.996Z,95341.13
2023-04-09T01:08:25.563Z,95345.38
2023-04-09T01:11:02.770Z,95338.50
2023-04-09T01:13:35.234Z,95339.31
2023-04-09T01:16:03.633Z,95348.00
2023-04-09T01:18:35.500Z,95347.19
2023-04-09T01:21:06.838Z,95341.94
2023-04-09T01:23:42.765Z,95342.75
2023-04-09T01:26:21.558Z,95340.50
2023-04-09T01:28:54.690Z,95338.69
2023-04-09T01:31:26.758Z,95342.31
2023-04-09T01:33:53.792Z,95343.13
2023-04-09T01:36:21.250Z,95337.88
2023-04-09T01:38:51.260Z,95339.50
2023-04-09T01:41:21.771Z,95336.69
2023-04-09T01:43:51.496Z,95338.69
2023-04-09T01:46:18.460Z,95336.44
2023-04-09T01:48:46.384Z,95333.81
2023-04-09T01:51:16.631Z,95332.38
2023-04-09T01:53:43.440Z,95333.00
2023-04-09T01:56:10.118Z,95336.44
2023-04-09T01:58:36.721Z,95340.50
2023-04-09T02:01:09.606Z,95336.06
2023-04-09T02:03:42.367Z,95337.88
2023-04-09T02:06:15.547Z,95338.44
2023-04-09T02:08:44.587Z,95341.44
2023-04-09T02:11:11.295Z,95346.50
2023-04-09T02:13:41.052Z,95348.13
2023-04-09T02:16:09.387Z,95345.69
2023-04-09T02:18:36.028Z,95341.44
2023-04-09T02:21:04.519Z,95337.81
2023-04-09T02:23:33.139Z,95341.44
2023-04-09T02:25:59.711Z,95335.56
2023-04-09T02:28:26.233Z,95337.19
2023-04-09T02:30:52.920Z,95340.25
2023-04-09T02:33:20.927Z,95339.28
2023-04-09T02:35:47.494Z,95342.31
2023-04-09T02:38:15.883Z,95342.31
2023-04-09T02:40:42.902Z,95334.13
2023-04-09T02:43:10.491Z,95336.19
2023-04-09T02:45:37.067Z,95342.84
2023-04-09T02:48:03.888Z,95342.66
2023-04-09T02:50:31.878Z,95332.94
2023-04-09T02:52:58.444Z,95331.75
2023-04-09T02:55:25.057Z,95327.56
2023-04-09T02:57:51.570Z,95324.13
2023-04-09T03:00:18.154Z,95328.41
2023-04-09T03:02:44.854Z,95328.41
2023-04-09T03:05:11.613Z,95318.47
2023-04-09T03:07:39.498Z,95315.13
2023-04-09T03:10:06.756Z,95316.94
2023-04-09T03:12:33.314Z,95305.56
2023-04-09T03:14:59.909Z,95310.69
2023-04-09T03:17:27.227Z,95313.50
2023-04-09T03:19:54.047Z,95310.25
2023-04-09T03:22:20.583Z,95309.63
2023-04-09T03:24:48.554Z,95305.81
2023-04-09T03:27:15.218Z,95303.41
2023-04-09T03:29:41.854Z,95310.06
2023-04-09T03:32:08.426Z,95299.75
2023-04-09T03:34:35.415Z,95307.25
2023-04-09T03:37:04.448Z,95306.66
2023-04-09T03:39:31.365Z,95308.91
2023-04-09T03:41:59.457Z,95296.47
2023-04-09T03:44:26.049Z,95309.88
2023-04-09T03:46:52.873Z,95303.41
2023-04-09T03:49:19.601Z,95312.72
2023-04-09T03:51:46.187Z,95313.94
2023-04-09T03:54:12.992Z,95320.38
2023-04-09T03:56:39.540Z,95318.53
2023-04-09T03:59:07.539Z,95318.72
2023-04-09T04:01:34.832Z,95309.63
2023-04-09T04:04:01.818Z,95311.03
2023-04-09T04:06:28.503Z,95308.41
2023-04-09T04:08:55.175Z,95313.06
2023-04-09T04:11:21.753Z,95314.06
2023-04-09T04:13:48.335Z,95315.69
2023-04-09T04:16:16.276Z,95317.09
2023-04-09T04:18:42.912Z,95311.41
2023-04-09T04:21:13.208Z,95315.03
2023-04-09T04:23:39.966Z,95319.72
2023-04-09T04:26:09.843Z,95319.91
2023-04-09T04:28:36.820Z,95316.25
2023-04-09T04:31:07.233Z,95323.94
2023-04-09T04:33:35.250Z,95320.31
2023-04-09T04:36:08.034Z,95324.75
2023-04-09T04:38:35.157Z,95330.19
2023-04-09T04:41:01.951Z,95334.44
2023-04-09T04:43:28.757Z,95333.00
2023-04-09T04:45:55.446Z,95323.69
2023-04-09T04:48:22.497Z,95320.06
2023-04-09T04:50:56.991Z,95325.97
2023-04-09T04:53:23.678Z,95320.53
2023-04-09T04:55:50.585Z,95316.09
2023-04-09T04:58:17.336Z,95316.81
2023-04-09T05:00:44.254Z,95328.59
2023-04-09T05:03:11.192Z,95326.06
2023-04-09T05:05:37.906Z,95331.66
2023-04-09T05:08:06.031Z,95328.47
2023-04-09T05:10:32.648Z,95327.91
2023-04-09T05:12:59.333Z,95330.34
2023-04-09T05:15:26.239Z,95329.97
2023-04-09T05:17:52.937Z,95321.59
2023-04-09T05:20:19.511Z,95337.22
2023-04-09T05:22:46.287Z,95340.03
2023-04-09T05:25:16.209Z,95336.78
2023-04-09T05:27:43.214Z,95336.03
2023-04-09T05:30:10.392Z,95338.88
2023-04-09T05:32:36.969Z,95345.72
2023-04-09T05:35:07.080Z,95362.78
2023-04-09T05:37:33.745Z,95375.63
2023-04-09T05:40:00.294Z,95369.91
2023-04-09T05:42:28.183Z,95359.28
2023-04-09T05:44:54.730Z,95372.41
2023-04-09T05:47:21.421Z,95363.97
2023-04-09T05:49:48.030Z,95359.06
2023-04-09T05:52:14.924Z,95369.13
2023-04-09T05:54:41.543Z,95354.00
2023-04-09T05:57:08.068Z,95358.56
2023-04-09T05:59:35.956Z,95354.13
2023-04-09T06:02:02.528Z,95356.03
2023-04-09T06:04:29.224Z,95360.28
2023-04-09T06:07:00.025Z,95367.16
2023-04-09T06:09:29.108Z,95374.66
2023-04-09T06:11:55.729Z,95374.28
2023-04-09T06:14:22.311Z,95371.28
2023-04-09T06:16:50.470Z,95375.91
2023-04-09T06:19:17.060Z,95384.63
2023-04-09T06:21:43.760Z,95381.25
2023-04-09T06:24:10.374Z,95394.13
2023-04-09T06:26:37.022Z,95394.16
2023-04-09T06:29:03.649Z,95398.59
2023-04-09T06:31:30.276Z,95385.47
2023-04-09T06:33:58.292Z,95391.69
2023-04-09T06:36:25.124Z,95390.00
2023-04-09T06:38:51.742Z,95391.19
2023-04-09T06:41:21.188Z,95399.34
2023-04-09T06:43:47.791Z,95388.94
2023-04-09T06:46:17.235Z,95388.28
2023-04-09T06:48:44.735Z,95385.13
2023-04-09T06:51:13.091Z,95384.13
2023-04-09T06:53:39.697Z,95386.94
2023-04-09T06:56:07.216Z,95388.09
2023-04-09T06:58:34.066Z,95386.53
2023-04-09T07:01:01.122Z,95394.72
2023-04-09T07:03:28.815Z,95392.28
2023-04-09T07:05:56.512Z,95389.84
2023-04-09T07:08:24.551Z,95387.72
2023-04-09T07:10:51.285Z,95389.09
2023-04-09T07:13:17.968Z,95384.75
2023-04-09T07:15:44.588Z,95390.91
2023-04-09T07:18:11.209Z,95380.88
2023-04-09T07:20:37.895Z,95391.56
2023-04-09T07:23:07.004Z,95404.31
2023-04-09T07:25:34.989Z,95397.84
2023-04-09T07:28:01.655Z,95401.63
2023-04-09T07:30:28.260Z,95403.72
2023-04-09T07:32:55.153Z,95403.91
2023-04-09T07:35:22.000Z,95399.38
2023-04-09T07:37:48.665Z,95396.94
2023-04-09T07:40:15.353Z,95392.22
2023-04-09T07:42:43.597Z,95391.06
2023-04-09T07:45:10.307Z,95400.94
2023-04-09T07:47:38.100Z,95394.91
2023-04-09T07:50:05.494Z,95386.81
2023-04-09T07:52:32.035Z,95394.28
2023-04-09T07:54:58.676Z,95386.19
2023-04-09T07:57:25.264Z,95393.34
2023-04-09T07:59:54.065Z,95397.91
2023-04-09T08:02:21.292Z,95402.66
2023-04-09T08:04:48.149Z,95397.03
2023-04-09T08:07:14.907Z,95398.72
2023-04-09T08:09:41.508Z,95405.97
2023-04-09T08:12:08.303Z,95398.09
2023-04-09T08:14:35.012Z,95413.53
2023-04-09T08:17:02.997Z,95406.06
2023-04-09T08:19:29.621Z,95413.91
2023-04-09T08:21:56.638Z,95396.00
2023-04-09T08:24:23.178Z,95408.63
2023-04-09T08:26:49.770Z,95409.34
2023-04-09T08:29:16.757Z,95407.63
2023-04-09T08:31:43.445Z,95410.38
2023-04-09T08:34:11.434Z,95403.81
2023-04-09T08:36:38.026Z,95410.94
2023-04-09T08:39:04.675Z,95410.88
2023-04-09T08:41:35.123Z,95404.06
2023-04-09T08:44:02.015Z,95401.41
2023-04-09T08:46:28.695Z,95406.78
2023-04-09T08:48:55.613Z,95415.25
2023-04-09T08:51:24.708Z,95411.78
2023-04-09T08:53:56.507Z,95417.41
2023-04-09T08:56:23.802Z,95416.38
2023-04-09T08:58:51.356Z,95415.69
2023-04-09T09:01:19.975Z,95416.53
2023-04-09T09:03:59.318Z,95416.41
2023-04-09T09:06:29.949Z,95421.56
2023-04-09T09:09:07.174Z,95411.94
2023-04-09T09:11:35.339Z,95416.78
2023-04-09T09:14:03.899Z,95415.59
2023-04-09T09:16:33.063Z,95418.53
2023-04-09T09:19:00.677Z,95384.69
2023-04-09T09:21:30.044Z,95412.94
2023-04-09T09:23:57.381Z,95402.25
2023-04-09T09:26:25.861Z,95399.19
2023-04-09T09:28:52.900Z,95403.44
2023-04-09T09:31:21.406Z,95403.59
2023-04-09T09:33:48.741Z,95399.16
2023-04-09T09:36:16.423Z,95399.19
2023-04-09T09:38:55.235Z,95394.22
2023-04-09T09:41:22.224Z,95389.22
2023-04-09T09:43:49.808Z,95384.53
2023-04-09T09:46:17.675Z,95382.28
2023-04-09T09:48:49.653Z,95375.97
2023-04-09T09:51:16.775Z,95391.59
2023-04-09T09:53:46.622Z,95390.25
2023-04-09T09:56:21.570Z,95377.38
2023-04-09T09:58:53.449Z,95381.25
2023-04-09T10:01:24.304Z,95386.81
2023-04-09T10:03:52.711Z,95383.97
2023-04-09T10:06:19.543Z,95375.94
2023-04-09T10:08:48.702Z,95371.72
2023-04-09T10:11:17.356Z,95377.66
2023-04-09T10:13:51.272Z,95380.94
2023-04-09T10:16:19.023Z,95381.91
2023-04-09T10:18:45.683Z,95363.38
2023-04-09T10:21:17.251Z,95377.00
2023-04-09T10:23:45.362Z,95372.56
2023-04-09T10:26:11.937Z,95379.38
2023-04-09T10:28:40.199Z,95370.50
2023-04-09T10:31:07.700Z,95371.59
2023-04-09T10:33:37.311Z,95377.88
2023-04-09T10:36:05.659Z,95368.06
2023-04-09T10:38:37.344Z,95372.22
2023-04-09T10:41:15.994Z,95364.84
2023-04-09T10:43:47.041Z,95368.72
2023-04-09T10:46:28.286Z,95369.16
2023-04-09T10:49:17.079Z,95372.16
2023-04-09T10:51:50.544Z,95363.00
2023-04-09T10:54:44.028Z,95363.09
2023-04-09T10:57:13.696Z,95359.88
2023-04-09T10:59:44.810Z,95366.34
2023-04-09T11:02:45.168Z,95358.59
2023-04-09T11:05:20.192Z,95362.66
2023-04-09T11:07:53.127Z,95353.34
2023-04-09T11:10:19.816Z,95350.38
2023-04-09T11:12:47.020Z,95346.06
2023-04-09T11:15:18.358Z,95348.22
2023-04-09T11:17:48.803Z,95348.50
2023-04-09T11:20:17.301Z,95351.50
2023-04-09T11:22:43.883Z,95345.19
2023-04-09T11:25:10.480Z,95346.91
2023-04-09T11:27:37.964Z,95350.75
2023-04-09T11:30:06.255Z,95349.13
2023-04-09T11:32:34.294Z,95347.09
2023-04-09T11:35:01.070Z,95348.78
2023-04-09T11:37:27.778Z,95348.03
2023-04-09T11:39:57.345Z,95340.53
2023-04-09T11:42:25.758Z,95343.53
2023-04-09T11:44:53.726Z,95344.84
2023-04-09T11:47:21.260Z,95345.16
2023-04-09T11:49:49.495Z,95343.28
2023-04-09T11:52:16.730Z,95353.66
2023-04-09T11:54:49.221Z,95346.75
2023-04-09T11:57:16.149Z,95345.03
2023-04-09T11:59:42.847Z,95351.50
2023-04-09T12:02:09.526Z,95351.22
2023-04-09T12:04:36.316Z,95364.81
2023-04-09T12:07:08.534Z,95363.69
2023-04-09T12:09:47.695Z,95357.03
2023-04-09T12:12:18.897Z,95354.81
2023-04-09T12:14:46.100Z,95349.75
2023-04-09T12:17:12.688Z,95355.88
2023-04-09T12:19:39.249Z,95358.81
2023-04-09T12:22:07.204Z,95359.81
2023-04-09T12:24:33.911Z,95354.22
2023-04-09T12:27:01.575Z,95356.09
2023-04-09T12:29:29.857Z,95356.25
2023-04-09T12:31:56.568Z,95359.53
2023-04-09T12:34:23.257Z,95345.88
2023-04-09T12:36:49.847Z,95353.50
2023-04-09T12:39:17.864Z,95359.06
2023-04-09T12:41:45.393Z,95355.41
2023-04-09T12:44:11.985Z,95352.56
2023-04-09T12:46:38.557Z,95352.72
2023-04-09T12:49:06.107Z,95353.09
2023-04-09T12:51:32.744Z,95349.50
2023-04-09T12:53:59.413Z,95355.03
2023-04-09T12:56:29.402Z,95356.72
2023-04-09T12:58:56.799Z,95347.13
2023-04-09T13:01:23.401Z,95347.56
2023-04-09T13:03:50.357Z,95352.00
2023-04-09T13:06:17.089Z,95346.47
2023-04-09T13:08:43.710Z,95340.50
2023-04-09T13:11:10.498Z,95345.59
2023-04-09T13:13:39.822Z,95344.78
2023-04-09T13:16:08.979Z,95350.34
2023-04-09T13:18:35.584Z,95346.63
2023-04-09T13:21:02.160Z,95345.66
2023-04-09T13:23:28.759Z,95346.97
2023-04-09T13:25:55.382Z,95337.78
2023-04-09T13:28:21.963Z,95336.13
2023-04-09T13:30:49.975Z,95340.63
2023-04-09T13:33:16.687Z,95340.47
2023-04-09T13:35:43.345Z,95346.84
2023-04-09T13:38:09.956Z,95343.06
2023-04-09T13:40:36.643Z,95346.41
2023-04-09T13:43:03.212Z,95342.25
2023-04-09T13:45:29.793Z,95345.69
2023-04-09T13:47:58.328Z,95346.72
2023-04-09T13:50:25.042Z,95349.56
2023-04-09T13:52:51.632Z,95350.00
2023-04-09T13:55:18.433Z,95348.56
2023-04-09T13:57:45.411Z,95342.66
2023-04-09T14:00:13.906Z,95341.28
2023-04-09T14:02:40.717Z,95349.63
2023-04-09T14:05:09.339Z,95336.84
2023-04-09T14:07:35.945Z,95351.25
2023-04-09T14:10:02.684Z,95343.41
2023-04-09T14:12:29.367Z,95347.06
2023-04-09T14:14:56.088Z,95349.84
2023-04-09T14:17:22.956Z,95347.03
2023-04-09T14:19:49.508Z,95345.84
2023-04-09T14:22:17.596Z,95344.41
2023-04-09T14:24:44.208Z,95343.00
2023-04-09T14:27:10.794Z,95340.28
2023-04-09T14:29:37.361Z,95332.25
2023-04-09T14:32:03.983Z,95336.69
2023-04-09T14:34:31.389Z,95332.00
2023-04-09T14:36:58.037Z,95330.09
2023-04-09T14:39:25.971Z,95326.00
2023-04-09T14:41:52.577Z,95324.53
2023-04-09T14:44:19.186Z,95325.56
2023-04-09T14:46:45.844Z,95323.59
2023-04-09T14:49:12.498Z,95323.19
2023-04-09T14:51:39.187Z,95325.47
2023-04-09T14:54:06.004Z,95328.69
2023-04-09T14:56:33.906Z,95316.66
2023-04-09T14:59:00.510Z,95321.91
2023-04-09T15:01:27.971Z,95313.56
2023-04-09T15:03:55.163Z,95314.38
2023-04-09T15:06:22.270Z,95326.00
2023-04-09T15:08:48.933Z,95314.34
2023-04-09T15:11:16.237Z,95317.78
2023-04-09T15:13:45.305Z,95316.59
2023-04-09T15:16:21.223Z,95314.13
2023-04-09T15:18:51.187Z,95318.19
2023-04-09T15:21:18.075Z,95310.25
2023-04-09T15:23:44.802Z,95318.47
2023-04-09T15:26:11.363Z,95317.03
2023-04-09T15:28:37.993Z,95314.00
2023-04-09T15:31:08.149Z,95308.69
2023-04-09T15:33:34.744Z,95308.63
2023-04-09T15:36:01.362Z,95310.69
2023-04-09T15:38:28.015Z,95306.63
2023-04-09T15:40:56.040Z,95311.44
2023-04-09T15:43:23.265Z,95315.16
2023-04-09T15:45:50.886Z,95320.19
2023-04-09T15:48:19.343Z,95318.75
2023-04-09T15:50:46.479Z,95316.13
2023-04-09T15:53:13.499Z,95319.03
2023-04-09T15:55:40.210Z,95315.97
2023-04-09T15:58:06.921Z,95320.44
2023-04-09T16:00:33.511Z,95324.31
2023-04-09T16:03:00.443Z,95322.44
2023-04-09T16:05:28.373Z,95327.16
2023-04-09T16:07:55.993Z,95327.22
2023-04-09T16:10:24.415Z,95328.22
2023-04-09T16:12:51.128Z,95323.97
2023-04-09T16:15:17.736Z,95323.97
2023-04-09T16:17:44.334Z,95337.78
2023-04-09T16:20:13.391Z,95340.66
2023-04-09T16:22:41.382Z,95334.69
2023-04-09T16:25:08.892Z,95333.94
2023-04-09T16:27:35.741Z,95332.91
2023-04-09T16:30:02.612Z,95335.34
2023-04-09T16:32:29.290Z,95333.31
2023-04-09T16:35:00.359Z,95339.00
2023-04-09T16:37:27.186Z,95343.97
2023-04-09T16:39:56.539Z,95344.59
2023-04-09T16:42:23.145Z,95338.66
2023-04-09T16:44:49.783Z,95333.38
2023-04-09T16:47:16.393Z,95334.75
2023-04-09T16:49:42.963Z,95335.56
2023-04-09T16:52:09.543Z,95332.19
2023-04-09T16:54:36.142Z,95333.97
2023-04-09T16:57:04.155Z,95331.72
2023-04-09T16:59:31.260Z,95332.44
2023-04-09T17:01:57.859Z,95327.88
2023-04-09T17:04:24.818Z,95339.06
2023-04-09T17:06:51.444Z,95335.94
2023-04-09T17:09:18.051Z,95336.75
2023-04-09T17:11:44.711Z,95341.84
2023-04-09T17:14:12.642Z,95337.94
2023-04-09T17:16:39.192Z,95338.75
2023-04-09T17:19:06.407Z,95337.53
2023-04-09T17:21:32.960Z,95343.84
2023-04-09T17:24:01.765Z,95337.94
2023-04-09T17:26:28.821Z,95340.16
2023-04-09T17:28:55.470Z,95342.81
2023-04-09T17:31:24.336Z,95345.47
2023-04-09T17:33:51.711Z,95345.25
2023-04-09T17:36:19.498Z,95338.94
2023-04-09T17:38:46.539Z,95349.53
2023-04-09T17:41:13.204Z,95346.59
2023-04-09T17:43:39.782Z,95348.19
2023-04-09T17:46:08.701Z,95352.19
2023-04-09T17:48:37.392Z,95350.75
2023-04-09T17:51:04.568Z,95358.31
2023-04-09T17:53:31.242Z,95361.50
2023-04-09T17:55:57.830Z,95369.69
2023-04-09T17:58:24.989Z,95368.03
2023-04-09T18:00:53.069Z,95371.50
2023-04-09T18:03:20.280Z,95378.81
2023-04-09T18:05:48.404Z,95380.22
2023-04-09T18:08:15.058Z,95374.94
2023-04-09T18:10:42.106Z,95375.97
2023-04-09T18:13:08.750Z,95384.06
2023-04-09T18:15:35.535Z,95381.09
2023-04-09T18:18:02.339Z,95374.78
2023-04-09T18:20:29.071Z,95380.84
2023-04-09T18:22:57.057Z,95382.34
2023-04-09T18:25:23.922Z,95374.88
2023-04-09T18:27:51.161Z,95370.53
2023-04-09T18:30:17.935Z,95379.06
2023-04-09T18:32:44.522Z,95378.03
2023-04-09T18:35:11.283Z,95370.53
2023-04-09T18:37:38.232Z,95384.34
2023-04-09T18:40:12.243Z,95382.91
2023-04-09T18:42:38.834Z,95380.91
2023-04-09T18:45:05.906Z,95383.53
2023-04-09T18:47:32.648Z,95393.91
2023-04-09T18:49:59.325Z,95408.78
2023-04-09T18:52:25.892Z,95411.16
2023-04-09T18:54:52.465Z,95412.50
2023-04-09T18:57:20.480Z,95406.97
2023-04-09T18:59:47.144Z,95412.72
2023-04-09T19:02:13.868Z,95418.47
2023-04-09T19:04:41.977Z,95421.84
2023-04-09T19:07:10.638Z,95423.03
2023-04-09T19:09:37.585Z,95418.97
2023-04-09T19:12:04.729Z,95428.91
2023-04-09T19:14:32.704Z,95423.25
2023-04-09T19:16:59.618Z,95426.72
2023-04-09T19:19:26.290Z,95450.06
2023-04-09T19:21:52.911Z,95435.72
2023-04-09T19:24:19.507Z,95440.59
2023-04-09T19:26:46.241Z,95432.22
2023-04-09T19:29:16.115Z,95427.31
2023-04-09T19:31:44.456Z,95432.44
2023-04-09T19:34:11.369Z,95424.69
2023-04-09T19:36:38.075Z,95428.16
2023-04-09T19:39:05.850Z,95425.72
2023-04-09T19:41:32.461Z,95428.34
2023-04-09T19:44:01.140Z,95424.09
2023-04-09T19:46:27.768Z,95429.97
2023-04-09T19:48:56.656Z,95423.47
2023-04-09T19:51:23.260Z,95425.31
2023-04-09T19:53:49.813Z,95429.56
2023-04-09T19:56:16.360Z,95427.34
2023-04-09T19:58:43.638Z,95424.50
2023-04-09T20:01:10.321Z,95425.94
2023-04-09T20:03:37.134Z,95431.41
2023-04-09T20:06:11.207Z,95428.78
2023-04-09T20:08:38.206Z,95428.56
2023-04-09T20:11:05.323Z,95432.00
2023-04-09T20:13:31.990Z,95426.13
2023-04-09T20:15:58.677Z,95430.81
2023-04-09T20:18:25.347Z,95431.22
2023-04-09T20:20:52.081Z,95421.69
2023-04-09T20:23:20.090Z,95433.47
2023-04-09T20:25:46.717Z,95431.25
2023-04-09T20:28:13.316Z,95430.44
2023-04-09T20:30:39.874Z,95426.78
2023-04-09T20:33:06.482Z,95427.19
2023-04-09T20:35:34.237Z,95420.91
2023-04-09T20:38:00.837Z,95416.22
2023-04-09T20:40:30.658Z,95427.63
2023-04-09T20:42:57.200Z,95436.31
2023-04-09T20:45:23.752Z,95449.34
2023-04-09T20:47:50.704Z,95437.41
2023-04-09T20:50:19.318Z,95439.50
2023-04-09T20:52:45.868Z,95428.84
2023-04-09T20:55:12.566Z,95440.22
2023-04-09T20:57:40.416Z,95450.44
2023-04-09T21:00:08.607Z,95454.72
2023-04-09T21:02:35.296Z,95445.41
2023-04-09T21:05:15.062Z,95448.91
2023-04-09T21:07:48.274Z,95450.34
2023-04-09T21:10:15.524Z,95450.75
2023-04-09T21:12:43.436Z,95448.53
2023-04-09T21:15:11.072Z,95447.91
2023-04-09T21:17:37.765Z,95435.94
2023-04-09T21:20:05.024Z,95448.31
2023-04-09T21:22:31.947Z,95445.69
2023-04-09T21:24:58.586Z,95443.44
2023-04-09T21:27:25.263Z,95447.72
2023-04-09T21:29:53.664Z,95450.97
2023-04-09T21:32:20.510Z,95450.75
2023-04-09T21:34:47.159Z,95454.41
2023-04-09T21:37:22.734Z,95457.88
2023-04-09T21:39:49.363Z,95461.31
2023-04-09T21:42:16.002Z,95466.91
2023-04-09T21:44:42.601Z,95465.34
2023-04-09T21:47:12.021Z,95464.16
2023-04-09T21:49:40.308Z,95461.34
2023-04-09T21:52:13.836Z,95463.25
2023-04-09T21:54:41.119Z,95460.41
2023-04-09T21:57:08.004Z,95462.03
2023-04-09T21:59:36.280Z,95456.69
2023-04-09T22:02:03.272Z,95459.41
2023-04-09T22:04:31.474Z,95450.06
2023-04-09T22:06:58.220Z,95447.63
2023-04-09T22:09:24.877Z,95453.13
2023-04-09T22:11:51.409Z,95450.28
2023-04-09T22:14:19.132Z,95453.72
2023-04-09T22:16:46.058Z,95461.84
2023-04-09T22:19:16.030Z,95465.69
2023-04-09T22:21:44.004Z,95455.53
2023-04-09T22:24:10.717Z,95461.44
2023-04-09T22:26:37.360Z,95468.66
2023-04-09T22:29:05.721Z,95476.53
2023-04-09T22:31:33.528Z,95463.28
2023-04-09T22:34:10.025Z,95463.88
2023-04-09T22:36:45.572Z,95459.91
2023-04-09T22:39:12.134Z,95461.97
2023-04-09T22:41:39.005Z,95448.19
2023-04-09T22:44:06.640Z,95448.59
2023-04-09T22:46:34.626Z,95449.63
2023-04-09T22:49:04.874Z,95446.97
2023-04-09T22:51:34.672Z,95449.34
2023-04-09T22:54:02.725Z,95443.94
2023-04-09T22:56:30.128Z,95448.69
2023-04-09T22:58:56.791Z,95445.69
2023-04-09T23:01:23.396Z,95448.84
2023-04-09T23:03:50.854Z,95460.97
2023-04-09T23:06:17.509Z,95447.19
2023-04-09T23:08:44.407Z,95443.38
2023-04-09T23:11:12.382Z,95445.28
2023-04-09T23:13:38.985Z,95442.78
2023-04-09T23:16:06.266Z,95434.09
2023-04-09T23:18:33.610Z,95444.66
2023-04-09T23:21:03.327Z,95456.81
2023-04-09T23:23:29.871Z,95443.34
2023-04-09T23:25:56.404Z,95448.88
2023-04-09T23:28:24.320Z,95456.09
2023-04-09T23:30:51.128Z,95448.44
2023-04-09T23:33:17.801Z,95447.16
2023-04-09T23:35:44.368Z,95445.59
2023-04-09T23:38:10.986Z,95439.31
2023-04-09T23:40:37.511Z,95440.25
2023-04-09T23:43:04.230Z,95438.81
2023-04-09T23:45:32.109Z,95442.41
2023-04-09T23:47:58.837Z,95441.16
2023-04-09T23:50:27.810Z,95435.28
2023-04-09T23:52:59.625Z,95434.59
2023-04-09T23:55:27.139Z,95437.06
2023-04-09T23:57:53.818Z,95422.91
